Jamestown Regional Airport
KJMS : now visible

Airfield :











YOU CAN JOIN US ON...

 
LOGIN :

Register | Disclaimer

   EN    FR    IT 

 









Legend :    VFR   Marginal VFR   IFR   Intensive IFR   Very Intensive IFR
Visi :
Ceiling :
>= 8 km
>= 3000ft
5 to 8 km
1000 to 3000 ft
1500m to 5 km
500 to 1000 ft
800 to 1500m
200 to 500 ft
< 800m
< 200 ft
Symbols :   Thunderstorms  Fog  Heavy snow  Heavy precipitations  Wind > 20 kt







- Airport Elevation : 1500 ft
- IATA code : JMS


KJMS - Jamestown Regional

CURRENT METAR :
  • 181856Z AUTO 26011G18KT 10SM CLR 27/18 A2965 RMK AO2 SLP030 T02720178

EXPIRED METARs :
  • 181756Z AUTO 25013G21KT 10SM CLR 25/16 A2965 RMK AO2 SLP033 T02500161 10261 20172 53002
  • 181656Z AUTO 26012KT 10SM CLR 24/18 A2965 RMK AO2 SLP032 T02440178

TAF KJMS
Valid from the 18 at 18:00 until the 19 at 18:00 UTC


181737Z 1818/1918 26012KT P6SM SCT200
FM190100 27005KT P6SM FEW250
FM191200 31006KT P6SM VCSH SCT090 BKN150
KZMP FIR / North America



MET'MAP, your aeronautical weather chart ! - Copyright ORBIFLY December 2007 - Disclaimer

ORBIFLY MET'MAP TEAM :

Programming & Development : Alexandra Zaïnal
Concept & Development : Baudouin d'Aumeries
Co-Development & Prog : Marc-Olivier Méhu
Technical & hardware support : Manuel Goepfert

Contact : metmap@orbifly.com




SOURCES & CREDITS :

   NOAA       Earth
Advisory